sensor_id;sensor_type;location;lat;lon;timestamp;P1;durP1;ratioP1;P2;durP2;ratioP2
56794;SDS011;42678;59.400;18.410;2022-09-12T00:01:42;8.90;;;6.05;;
56794;SDS011;42678;59.400;18.410;2022-09-12T00:04:08;13.50;;;6.15;;
56794;SDS011;42678;59.400;18.410;2022-09-12T00:06:35;9.25;;;6.15;;
56794;SDS011;42678;59.400;18.410;2022-09-12T00:09:09;9.73;;;6.47;;
56794;SDS011;42678;59.400;18.410;2022-09-12T00:11:38;10.27;;;6.85;;
56794;SDS011;42678;59.400;18.410;2022-09-12T00:14:05;12.48;;;7.40;;
56794;SDS011;42678;59.400;18.410;2022-09-12T00:16:33;12.35;;;6.40;;
56794;SDS011;42678;59.400;18.410;2022-09-12T00:18:59;9.85;;;6.68;;
56794;SDS011;42678;59.400;18.410;2022-09-12T00:21:25;10.80;;;6.00;;
56794;SDS011;42678;59.400;18.410;2022-09-12T00:23:51;11.68;;;7.15;;
56794;SDS011;42678;59.400;18.410;2022-09-12T00:26:18;11.68;;;7.20;;
56794;SDS011;42678;59.400;18.410;2022-09-12T00:28:44;12.52;;;7.60;;
56794;SDS011;42678;59.400;18.410;2022-09-12T00:31:13;17.23;;;6.68;;
56794;SDS011;42678;59.400;18.410;2022-09-12T00:33:40;10.98;;;6.68;;
56794;SDS011;42678;59.400;18.410;2022-09-12T00:36:08;12.98;;;6.88;;
56794;SDS011;42678;59.400;18.410;2022-09-12T00:38:36;11.27;;;7.57;;
56794;SDS011;42678;59.400;18.410;2022-09-12T00:41:06;10.82;;;6.70;;
56794;SDS011;42678;59.400;18.410;2022-09-12T00:43:37;10.18;;;7.07;;
56794;SDS011;42678;59.400;18.410;2022-09-12T00:46:25;9.60;;;7.03;;
56794;SDS011;42678;59.400;18.410;2022-09-12T00:48:57;8.10;;;6.30;;
56794;SDS011;42678;59.400;18.410;2022-09-12T00:51:27;10.90;;;6.80;;
56794;SDS011;42678;59.400;18.410;2022-09-12T00:53:56;9.50;;;7.38;;
56794;SDS011;42678;59.400;18.410;2022-09-12T00:56:24;11.20;;;6.82;;
56794;SDS011;42678;59.400;18.410;2022-09-12T00:58:57;11.70;;;7.15;;
56794;SDS011;42678;59.400;18.410;2022-09-12T01:01:32;11.38;;;6.00;;
56794;SDS011;42678;59.400;18.410;2022-09-12T01:03:58;8.95;;;5.60;;
56794;SDS011;42678;59.400;18.410;2022-09-12T01:06:29;13.38;;;6.68;;
56794;SDS011;42678;59.400;18.410;2022-09-12T01:08:59;9.88;;;6.25;;
56794;SDS011;42678;59.400;18.410;2022-09-12T01:11:29;11.77;;;7.05;;
56794;SDS011;42678;59.400;18.410;2022-09-12T01:13:56;9.63;;;7.65;;
56794;SDS011;42678;59.400;18.410;2022-09-12T01:16:22;12.98;;;6.80;;
56794;SDS011;42678;59.400;18.410;2022-09-12T01:18:54;9.88;;;6.95;;
56794;SDS011;42678;59.400;18.410;2022-09-12T01:24:53;8.50;;;6.40;;
56794;SDS011;42678;59.400;18.410;2022-09-12T01:35:44;10.25;;;6.10;;
56794;SDS011;42678;59.400;18.410;2022-09-12T01:38:24;12.88;;;7.35;;
56794;SDS011;42678;59.400;18.410;2022-09-12T01:46:43;11.88;;;8.00;;
56794;SDS011;42678;59.400;18.410;2022-09-12T01:51:43;14.23;;;7.28;;
56794;SDS011;42678;59.400;18.410;2022-09-12T01:54:46;10.77;;;7.07;;
56794;SDS011;42678;59.400;18.410;2022-09-12T01:57:33;11.30;;;8.05;;
56794;SDS011;42678;59.400;18.410;2022-09-12T02:00:06;11.68;;;6.55;;
56794;SDS011;42678;59.400;18.410;2022-09-12T02:02:39;9.73;;;7.68;;
56794;SDS011;42678;59.400;18.410;2022-09-12T02:05:13;9.45;;;6.78;;
56794;SDS011;42678;59.400;18.410;2022-09-12T02:10:40;11.18;;;7.63;;
56794;SDS011;42678;59.400;18.410;2022-09-12T02:13:11;11.45;;;7.32;;
56794;SDS011;42678;59.400;18.410;2022-09-12T02:15:42;10.45;;;7.25;;
56794;SDS011;42678;59.400;18.410;2022-09-12T02:18:14;10.13;;;6.90;;
56794;SDS011;42678;59.400;18.410;2022-09-12T02:20:42;11.63;;;7.95;;
56794;SDS011;42678;59.400;18.410;2022-09-12T02:23:12;19.50;;;8.82;;
56794;SDS011;42678;59.400;18.410;2022-09-12T02:25:52;9.27;;;6.95;;
56794;SDS011;42678;59.400;18.410;2022-09-12T02:28:23;16.23;;;7.82;;
56794;SDS011;42678;59.400;18.410;2022-09-12T02:36:27;10.02;;;7.18;;
56794;SDS011;42678;59.400;18.410;2022-09-12T02:38:56;10.15;;;7.40;;
56794;SDS011;42678;59.400;18.410;2022-09-12T02:41:22;9.70;;;6.78;;
56794;SDS011;42678;59.400;18.410;2022-09-12T02:43:49;14.15;;;7.10;;
56794;SDS011;42678;59.400;18.410;2022-09-12T02:46:20;11.20;;;7.00;;
56794;SDS011;42678;59.400;18.410;2022-09-12T02:48:50;12.05;;;7.25;;
56794;SDS011;42678;59.400;18.410;2022-09-12T02:51:16;12.48;;;6.85;;
56794;SDS011;42678;59.400;18.410;2022-09-12T02:53:42;10.70;;;7.15;;
56794;SDS011;42678;59.400;18.410;2022-09-12T02:56:10;19.35;;;6.85;;
56794;SDS011;42678;59.400;18.410;2022-09-12T02:58:41;14.18;;;7.45;;
56794;SDS011;42678;59.400;18.410;2022-09-12T03:06:24;12.70;;;6.47;;
56794;SDS011;42678;59.400;18.410;2022-09-12T03:12:37;15.38;;;7.05;;
56794;SDS011;42678;59.400;18.410;2022-09-12T03:20:50;9.85;;;6.60;;
56794;SDS011;42678;59.400;18.410;2022-09-12T03:23:37;9.43;;;7.05;;
56794;SDS011;42678;59.400;18.410;2022-09-12T03:29:25;11.68;;;6.57;;
56794;SDS011;42678;59.400;18.410;2022-09-12T03:31:56;11.90;;;6.88;;
56794;SDS011;42678;59.400;18.410;2022-09-12T03:34:24;8.88;;;6.80;;
56794;SDS011;42678;59.400;18.410;2022-09-12T03:36:51;10.48;;;6.07;;
56794;SDS011;42678;59.400;18.410;2022-09-12T03:39:19;10.05;;;6.15;;
56794;SDS011;42678;59.400;18.410;2022-09-12T03:41:45;10.75;;;5.95;;
56794;SDS011;42678;59.400;18.410;2022-09-12T03:44:11;10.35;;;6.63;;
56794;SDS011;42678;59.400;18.410;2022-09-12T03:46:36;11.82;;;6.90;;
56794;SDS011;42678;59.400;18.410;2022-09-12T03:49:02;12.32;;;7.35;;
56794;SDS011;42678;59.400;18.410;2022-09-12T03:51:28;11.07;;;6.72;;
56794;SDS011;42678;59.400;18.410;2022-09-12T03:53:53;12.18;;;7.22;;
56794;SDS011;42678;59.400;18.410;2022-09-12T03:56:19;10.00;;;6.28;;
56794;SDS011;42678;59.400;18.410;2022-09-12T03:58:45;9.63;;;6.32;;
56794;SDS011;42678;59.400;18.410;2022-09-12T04:01:15;11.38;;;6.63;;
56794;SDS011;42678;59.400;18.410;2022-09-12T04:03:42;11.50;;;7.95;;
56794;SDS011;42678;59.400;18.410;2022-09-12T04:06:10;12.23;;;7.45;;
56794;SDS011;42678;59.400;18.410;2022-09-12T04:08:39;16.02;;;7.18;;
56794;SDS011;42678;59.400;18.410;2022-09-12T04:11:07;13.88;;;7.07;;
56794;SDS011;42678;59.400;18.410;2022-09-12T04:13:37;16.27;;;7.03;;
56794;SDS011;42678;59.400;18.410;2022-09-12T04:16:04;15.20;;;7.72;;
56794;SDS011;42678;59.400;18.410;2022-09-12T04:18:31;16.35;;;7.18;;
56794;SDS011;42678;59.400;18.410;2022-09-12T04:20:57;11.68;;;6.85;;
56794;SDS011;42678;59.400;18.410;2022-09-12T04:23:23;14.43;;;7.22;;
56794;SDS011;42678;59.400;18.410;2022-09-12T04:25:55;13.20;;;7.40;;
56794;SDS011;42678;59.400;18.410;2022-09-12T04:28:22;13.70;;;7.45;;
56794;SDS011;42678;59.400;18.410;2022-09-12T04:30:49;18.33;;;6.78;;
56794;SDS011;42678;59.400;18.410;2022-09-12T04:33:15;11.35;;;7.43;;
56794;SDS011;42678;59.400;18.410;2022-09-12T04:35:41;13.13;;;6.18;;
56794;SDS011;42678;59.400;18.410;2022-09-12T04:38:07;16.65;;;8.02;;
56794;SDS011;42678;59.400;18.410;2022-09-12T04:40:33;18.85;;;8.07;;
56794;SDS011;42678;59.400;18.410;2022-09-12T04:42:59;13.45;;;7.28;;
56794;SDS011;42678;59.400;18.410;2022-09-12T04:45:24;15.65;;;7.38;;
56794;SDS011;42678;59.400;18.410;2022-09-12T04:47:50;16.88;;;7.15;;
56794;SDS011;42678;59.400;18.410;2022-09-12T04:50:16;14.02;;;6.78;;
56794;SDS011;42678;59.400;18.410;2022-09-12T04:52:43;14.25;;;7.15;;
56794;SDS011;42678;59.400;18.410;2022-09-12T04:55:13;16.67;;;7.32;;
56794;SDS011;42678;59.400;18.410;2022-09-12T04:57:38;16.00;;;7.15;;
56794;SDS011;42678;59.400;18.410;2022-09-12T05:00:04;15.68;;;7.30;;
56794;SDS011;42678;59.400;18.410;2022-09-12T05:02:32;21.42;;;6.72;;
56794;SDS011;42678;59.400;18.410;2022-09-12T05:04:58;18.98;;;7.57;;
56794;SDS011;42678;59.400;18.410;2022-09-12T05:07:24;25.80;;;8.00;;
56794;SDS011;42678;59.400;18.410;2022-09-12T05:09:50;12.80;;;6.95;;
56794;SDS011;42678;59.400;18.410;2022-09-12T05:12:16;15.43;;;6.97;;
56794;SDS011;42678;59.400;18.410;2022-09-12T05:14:41;12.43;;;7.13;;
56794;SDS011;42678;59.400;18.410;2022-09-12T05:17:07;21.23;;;7.57;;
56794;SDS011;42678;59.400;18.410;2022-09-12T05:19:33;16.75;;;7.40;;
56794;SDS011;42678;59.400;18.410;2022-09-12T05:21:59;23.42;;;7.32;;
56794;SDS011;42678;59.400;18.410;2022-09-12T05:24:25;24.33;;;10.98;;
56794;SDS011;42678;59.400;18.410;2022-09-12T05:26:50;15.15;;;6.90;;
56794;SDS011;42678;59.400;18.410;2022-09-12T05:29:16;16.55;;;7.45;;
56794;SDS011;42678;59.400;18.410;2022-09-12T05:31:42;11.48;;;7.15;;
56794;SDS011;42678;59.400;18.410;2022-09-12T05:34:08;18.50;;;7.38;;
56794;SDS011;42678;59.400;18.410;2022-09-12T05:36:34;18.83;;;6.32;;
56794;SDS011;42678;59.400;18.410;2022-09-12T05:39:05;17.63;;;7.47;;
56794;SDS011;42678;59.400;18.410;2022-09-12T05:41:32;18.67;;;7.60;;
56794;SDS011;42678;59.400;18.410;2022-09-12T05:43:59;18.80;;;8.30;;
56794;SDS011;42678;59.400;18.410;2022-09-12T05:46:27;23.25;;;7.18;;
56794;SDS011;42678;59.400;18.410;2022-09-12T05:48:55;19.88;;;7.80;;
56794;SDS011;42678;59.400;18.410;2022-09-12T05:51:22;19.08;;;7.38;;
56794;SDS011;42678;59.400;18.410;2022-09-12T05:53:57;20.88;;;7.20;;
56794;SDS011;42678;59.400;18.410;2022-09-12T05:56:25;19.70;;;7.35;;
56794;SDS011;42678;59.400;18.410;2022-09-12T05:58:53;20.70;;;7.43;;
56794;SDS011;42678;59.400;18.410;2022-09-12T06:01:24;24.67;;;7.93;;
56794;SDS011;42678;59.400;18.410;2022-09-12T06:03:52;18.35;;;7.20;;
56794;SDS011;42678;59.400;18.410;2022-09-12T06:06:20;20.15;;;6.75;;
56794;SDS011;42678;59.400;18.410;2022-09-12T06:08:49;16.25;;;6.18;;
56794;SDS011;42678;59.400;18.410;2022-09-12T06:11:17;18.80;;;6.68;;
56794;SDS011;42678;59.400;18.410;2022-09-12T06:13:45;15.27;;;6.88;;
56794;SDS011;42678;59.400;18.410;2022-09-12T06:16:12;15.65;;;6.68;;
56794;SDS011;42678;59.400;18.410;2022-09-12T06:18:41;15.75;;;6.40;;
56794;SDS011;42678;59.400;18.410;2022-09-12T06:21:11;16.50;;;6.18;;
56794;SDS011;42678;59.400;18.410;2022-09-12T06:23:37;17.70;;;6.40;;
56794;SDS011;42678;59.400;18.410;2022-09-12T06:26:04;16.55;;;6.60;;
56794;SDS011;42678;59.400;18.410;2022-09-12T06:28:31;14.95;;;6.07;;
56794;SDS011;42678;59.400;18.410;2022-09-12T06:31:09;15.65;;;6.22;;
56794;SDS011;42678;59.400;18.410;2022-09-12T06:33:41;14.43;;;6.05;;
56794;SDS011;42678;59.400;18.410;2022-09-12T06:36:09;15.00;;;5.57;;
56794;SDS011;42678;59.400;18.410;2022-09-12T06:38:41;18.40;;;6.43;;
56794;SDS011;42678;59.400;18.410;2022-09-12T06:41:09;9.52;;;4.85;;
56794;SDS011;42678;59.400;18.410;2022-09-12T06:43:36;10.73;;;4.88;;
56794;SDS011;42678;59.400;18.410;2022-09-12T06:46:03;11.73;;;4.85;;
56794;SDS011;42678;59.400;18.410;2022-09-12T06:48:29;16.00;;;5.63;;
56794;SDS011;42678;59.400;18.410;2022-09-12T06:51:02;12.65;;;4.45;;
56794;SDS011;42678;59.400;18.410;2022-09-12T06:53:32;14.75;;;4.43;;
56794;SDS011;42678;59.400;18.410;2022-09-12T06:55:59;16.02;;;4.35;;
56794;SDS011;42678;59.400;18.410;2022-09-12T06:58:26;11.48;;;4.50;;
56794;SDS011;42678;59.400;18.410;2022-09-12T07:00:59;9.77;;;4.45;;
56794;SDS011;42678;59.400;18.410;2022-09-12T07:03:33;8.50;;;4.20;;
56794;SDS011;42678;59.400;18.410;2022-09-12T07:06:03;7.68;;;4.05;;
56794;SDS011;42678;59.400;18.410;2022-09-12T07:08:31;12.77;;;4.40;;
56794;SDS011;42678;59.400;18.410;2022-09-12T07:10:58;8.88;;;3.67;;
56794;SDS011;42678;59.400;18.410;2022-09-12T07:13:32;10.57;;;3.67;;
56794;SDS011;42678;59.400;18.410;2022-09-12T07:16:00;8.10;;;4.70;;
56794;SDS011;42678;59.400;18.410;2022-09-12T07:18:26;18.20;;;4.88;;
56794;SDS011;42678;59.400;18.410;2022-09-12T07:20:53;12.95;;;4.85;;
56794;SDS011;42678;59.400;18.410;2022-09-12T07:23:19;11.13;;;4.53;;
56794;SDS011;42678;59.400;18.410;2022-09-12T07:25:51;13.05;;;5.25;;
56794;SDS011;42678;59.400;18.410;2022-09-12T07:28:18;14.23;;;4.88;;
56794;SDS011;42678;59.400;18.410;2022-09-12T07:30:44;16.25;;;6.18;;
56794;SDS011;42678;59.400;18.410;2022-09-12T07:33:09;12.05;;;5.13;;
56794;SDS011;42678;59.400;18.410;2022-09-12T07:35:36;17.20;;;4.80;;
56794;SDS011;42678;59.400;18.410;2022-09-12T07:38:01;12.45;;;4.65;;
56794;SDS011;42678;59.400;18.410;2022-09-12T07:40:27;9.68;;;4.28;;
56794;SDS011;42678;59.400;18.410;2022-09-12T07:42:53;10.57;;;4.45;;
56794;SDS011;42678;59.400;18.410;2022-09-12T07:45:19;11.55;;;3.88;;
56794;SDS011;42678;59.400;18.410;2022-09-12T07:47:44;12.60;;;4.22;;
56794;SDS011;42678;59.400;18.410;2022-09-12T07:50:10;13.05;;;3.78;;
56794;SDS011;42678;59.400;18.410;2022-09-12T07:52:36;12.35;;;3.75;;
56794;SDS011;42678;59.400;18.410;2022-09-12T07:55:01;13.93;;;3.63;;
56794;SDS011;42678;59.400;18.410;2022-09-12T07:57:28;12.32;;;3.20;;
56794;SDS011;42678;59.400;18.410;2022-09-12T07:59:53;7.15;;;2.40;;
56794;SDS011;42678;59.400;18.410;2022-09-12T08:02:19;9.07;;;2.83;;
56794;SDS011;42678;59.400;18.410;2022-09-12T08:04:46;5.57;;;2.30;;
56794;SDS011;42678;59.400;18.410;2022-09-12T08:07:12;2.83;;;1.80;;
56794;SDS011;42678;59.400;18.410;2022-09-12T08:09:38;5.85;;;2.00;;
56794;SDS011;42678;59.400;18.410;2022-09-12T08:12:04;5.43;;;2.40;;
56794;SDS011;42678;59.400;18.410;2022-09-12T08:14:30;5.85;;;1.73;;
56794;SDS011;42678;59.400;18.410;2022-09-12T08:16:56;5.07;;;2.15;;
56794;SDS011;42678;59.400;18.410;2022-09-12T08:19:22;6.03;;;2.55;;
56794;SDS011;42678;59.400;18.410;2022-09-12T08:21:47;8.38;;;2.22;;
56794;SDS011;42678;59.400;18.410;2022-09-12T08:24:13;5.53;;;2.30;;
56794;SDS011;42678;59.400;18.410;2022-09-12T08:26:40;6.10;;;2.40;;
56794;SDS011;42678;59.400;18.410;2022-09-12T08:29:05;7.63;;;2.45;;
56794;SDS011;42678;59.400;18.410;2022-09-12T08:31:31;5.40;;;1.65;;
56794;SDS011;42678;59.400;18.410;2022-09-12T08:34:00;4.55;;;2.20;;
56794;SDS011;42678;59.400;18.410;2022-09-12T08:36:28;3.63;;;2.08;;
56794;SDS011;42678;59.400;18.410;2022-09-12T08:38:54;4.75;;;2.33;;
56794;SDS011;42678;59.400;18.410;2022-09-12T08:49:14;4.25;;;1.90;;
56794;SDS011;42678;59.400;18.410;2022-09-12T08:51:50;9.90;;;2.55;;
56794;SDS011;42678;59.400;18.410;2022-09-12T08:54:20;3.28;;;1.50;;
56794;SDS011;42678;59.400;18.410;2022-09-12T08:56:51;6.20;;;2.33;;
56794;SDS011;42678;59.400;18.410;2022-09-12T08:59:25;6.43;;;2.22;;
56794;SDS011;42678;59.400;18.410;2022-09-12T09:01:52;7.07;;;2.80;;
56794;SDS011;42678;59.400;18.410;2022-09-12T09:04:36;2.15;;;1.55;;
56794;SDS011;42678;59.400;18.410;2022-09-12T09:10:15;3.85;;;2.03;;
56794;SDS011;42678;59.400;18.410;2022-09-12T09:12:51;4.10;;;1.67;;
56794;SDS011;42678;59.400;18.410;2022-09-12T09:21:28;4.43;;;1.90;;
56794;SDS011;42678;59.400;18.410;2022-09-12T09:24:01;5.10;;;1.58;;
56794;SDS011;42678;59.400;18.410;2022-09-12T09:29:55;6.50;;;2.00;;
56794;SDS011;42678;59.400;18.410;2022-09-12T09:32:30;3.35;;;1.80;;
56794;SDS011;42678;59.400;18.410;2022-09-12T09:35:04;5.78;;;2.03;;
56794;SDS011;42678;59.400;18.410;2022-09-12T09:37:43;7.13;;;1.85;;
56794;SDS011;42678;59.400;18.410;2022-09-12T09:40:19;5.10;;;2.67;;
56794;SDS011;42678;59.400;18.410;2022-09-12T09:45:21;2.75;;;1.73;;
56794;SDS011;42678;59.400;18.410;2022-09-12T09:50:37;5.32;;;1.52;;
56794;SDS011;42678;59.400;18.410;2022-09-12T09:53:04;4.85;;;1.30;;
56794;SDS011;42678;59.400;18.410;2022-09-12T09:55:36;6.47;;;1.88;;
56794;SDS011;42678;59.400;18.410;2022-09-12T09:58:05;6.35;;;1.88;;
56794;SDS011;42678;59.400;18.410;2022-09-12T10:00:34;10.00;;;5.28;;
56794;SDS011;42678;59.400;18.410;2022-09-12T10:05:31;3.00;;;1.83;;
56794;SDS011;42678;59.400;18.410;2022-09-12T10:08:00;5.10;;;1.95;;
56794;SDS011;42678;59.400;18.410;2022-09-12T10:10:27;4.10;;;1.80;;
56794;SDS011;42678;59.400;18.410;2022-09-12T10:13:06;4.53;;;1.58;;
56794;SDS011;42678;59.400;18.410;2022-09-12T10:15:34;2.25;;;1.42;;
56794;SDS011;42678;59.400;18.410;2022-09-12T10:18:00;4.75;;;1.70;;
56794;SDS011;42678;59.400;18.410;2022-09-12T10:20:37;2.70;;;1.30;;
56794;SDS011;42678;59.400;18.410;2022-09-12T10:25:57;11.85;;;9.82;;
56794;SDS011;42678;59.400;18.410;2022-09-12T10:28:35;3.00;;;1.40;;
56794;SDS011;42678;59.400;18.410;2022-09-12T10:31:03;4.82;;;1.45;;
56794;SDS011;42678;59.400;18.410;2022-09-12T10:33:39;3.47;;;1.48;;
56794;SDS011;42678;59.400;18.410;2022-09-12T10:36:15;3.67;;;1.23;;
56794;SDS011;42678;59.400;18.410;2022-09-12T10:38:47;6.75;;;2.20;;
56794;SDS011;42678;59.400;18.410;2022-09-12T10:41:21;5.78;;;1.85;;
56794;SDS011;42678;59.400;18.410;2022-09-12T10:43:48;2.80;;;1.40;;
56794;SDS011;42678;59.400;18.410;2022-09-12T10:48:42;3.70;;;1.30;;
56794;SDS011;42678;59.400;18.410;2022-09-12T10:53:54;2.40;;;1.70;;
56794;SDS011;42678;59.400;18.410;2022-09-12T10:56:23;6.43;;;2.10;;
56794;SDS011;42678;59.400;18.410;2022-09-12T10:59:04;6.00;;;1.60;;
56794;SDS011;42678;59.400;18.410;2022-09-12T11:02:01;2.72;;;1.60;;
56794;SDS011;42678;59.400;18.410;2022-09-12T11:04:45;3.97;;;2.03;;
56794;SDS011;42678;59.400;18.410;2022-09-12T11:10:25;2.58;;;1.65;;
56794;SDS011;42678;59.400;18.410;2022-09-12T11:13:24;3.30;;;1.77;;
56794;SDS011;42678;59.400;18.410;2022-09-12T11:16:13;3.47;;;2.05;;
56794;SDS011;42678;59.400;18.410;2022-09-12T11:21:33;2.72;;;2.10;;
56794;SDS011;42678;59.400;18.410;2022-09-12T11:24:29;4.40;;;2.17;;
56794;SDS011;42678;59.400;18.410;2022-09-12T11:27:17;5.15;;;1.80;;
56794;SDS011;42678;59.400;18.410;2022-09-12T11:29:56;5.07;;;1.45;;
56794;SDS011;42678;59.400;18.410;2022-09-12T11:32:38;2.00;;;1.60;;
56794;SDS011;42678;59.400;18.410;2022-09-12T11:35:34;2.97;;;1.55;;
56794;SDS011;42678;59.400;18.410;2022-09-12T11:38:10;4.15;;;1.90;;
56794;SDS011;42678;59.400;18.410;2022-09-12T11:40:52;6.45;;;2.15;;
56794;SDS011;42678;59.400;18.410;2022-09-12T11:48:50;5.68;;;1.63;;
56794;SDS011;42678;59.400;18.410;2022-09-12T11:51:52;4.75;;;2.30;;
56794;SDS011;42678;59.400;18.410;2022-09-12T12:00:05;3.50;;;1.60;;
56794;SDS011;42678;59.400;18.410;2022-09-12T12:02:48;3.17;;;1.97;;
56794;SDS011;42678;59.400;18.410;2022-09-12T12:05:41;3.90;;;1.80;;
56794;SDS011;42678;59.400;18.410;2022-09-12T12:08:16;5.85;;;1.70;;
56794;SDS011;42678;59.400;18.410;2022-09-12T12:10:55;8.65;;;3.05;;
56794;SDS011;42678;59.400;18.410;2022-09-12T12:16:03;1.92;;;1.35;;
56794;SDS011;42678;59.400;18.410;2022-09-12T12:18:32;3.50;;;1.35;;
56794;SDS011;42678;59.400;18.410;2022-09-12T12:34:46;6.93;;;1.90;;
56794;SDS011;42678;59.400;18.410;2022-09-12T12:44:55;6.50;;;1.98;;
56794;SDS011;42678;59.400;18.410;2022-09-12T12:47:31;5.22;;;2.33;;
56794;SDS011;42678;59.400;18.410;2022-09-12T12:50:03;4.82;;;2.22;;
56794;SDS011;42678;59.400;18.410;2022-09-12T12:52:43;6.90;;;1.83;;
56794;SDS011;42678;59.400;18.410;2022-09-12T12:55:35;2.85;;;1.77;;
56794;SDS011;42678;59.400;18.410;2022-09-12T12:58:04;10.18;;;2.20;;
56794;SDS011;42678;59.400;18.410;2022-09-12T13:10:36;8.02;;;2.30;;
56794;SDS011;42678;59.400;18.410;2022-09-12T13:13:03;6.80;;;1.73;;
56794;SDS011;42678;59.400;18.410;2022-09-12T13:18:01;9.65;;;3.05;;
56794;SDS011;42678;59.400;18.410;2022-09-12T13:20:33;4.32;;;1.73;;
56794;SDS011;42678;59.400;18.410;2022-09-12T13:23:20;4.88;;;1.83;;
56794;SDS011;42678;59.400;18.410;2022-09-12T13:25:56;7.47;;;1.98;;
56794;SDS011;42678;59.400;18.410;2022-09-12T13:28:25;5.13;;;1.95;;
56794;SDS011;42678;59.400;18.410;2022-09-12T13:30:57;5.40;;;1.83;;
56794;SDS011;42678;59.400;18.410;2022-09-12T13:33:53;7.75;;;2.00;;
56794;SDS011;42678;59.400;18.410;2022-09-12T13:44:19;6.88;;;1.65;;
56794;SDS011;42678;59.400;18.410;2022-09-12T13:46:47;4.00;;;1.85;;
56794;SDS011;42678;59.400;18.410;2022-09-12T13:49:33;5.60;;;1.60;;
56794;SDS011;42678;59.400;18.410;2022-09-12T13:52:03;4.53;;;1.63;;
56794;SDS011;42678;59.400;18.410;2022-09-12T13:54:33;6.32;;;1.60;;
56794;SDS011;42678;59.400;18.410;2022-09-12T13:57:02;5.32;;;1.55;;
56794;SDS011;42678;59.400;18.410;2022-09-12T13:59:36;4.18;;;1.60;;
56794;SDS011;42678;59.400;18.410;2022-09-12T14:02:19;4.30;;;1.48;;
56794;SDS011;42678;59.400;18.410;2022-09-12T14:04:48;5.65;;;2.10;;
56794;SDS011;42678;59.400;18.410;2022-09-12T14:10:29;7.68;;;2.20;;
56794;SDS011;42678;59.400;18.410;2022-09-12T14:12:58;6.85;;;1.60;;
56794;SDS011;42678;59.400;18.410;2022-09-12T14:15:28;8.02;;;1.48;;
56794;SDS011;42678;59.400;18.410;2022-09-12T14:17:57;3.30;;;1.50;;
56794;SDS011;42678;59.400;18.410;2022-09-12T14:20:28;4.05;;;1.35;;
56794;SDS011;42678;59.400;18.410;2022-09-12T14:23:00;2.40;;;1.42;;
56794;SDS011;42678;59.400;18.410;2022-09-12T14:25:28;8.90;;;1.63;;
56794;SDS011;42678;59.400;18.410;2022-09-12T14:28:02;2.38;;;1.50;;
56794;SDS011;42678;59.400;18.410;2022-09-12T14:30:29;7.70;;;1.88;;
56794;SDS011;42678;59.400;18.410;2022-09-12T14:40:39;3.80;;;1.77;;
56794;SDS011;42678;59.400;18.410;2022-09-12T14:43:16;3.65;;;1.85;;
56794;SDS011;42678;59.400;18.410;2022-09-12T14:45:50;4.63;;;2.10;;
56794;SDS011;42678;59.400;18.410;2022-09-12T14:48:17;5.95;;;2.00;;
56794;SDS011;42678;59.400;18.410;2022-09-12T14:50:47;5.03;;;1.83;;
56794;SDS011;42678;59.400;18.410;2022-09-12T14:55:50;2.25;;;1.55;;
56794;SDS011;42678;59.400;18.410;2022-09-12T15:00:56;3.13;;;1.48;;
56794;SDS011;42678;59.400;18.410;2022-09-12T15:03:29;5.55;;;1.80;;
56794;SDS011;42678;59.400;18.410;2022-09-12T15:05:57;2.67;;;1.20;;
56794;SDS011;42678;59.400;18.410;2022-09-12T15:08:24;1.92;;;1.30;;
56794;SDS011;42678;59.400;18.410;2022-09-12T15:10:50;2.83;;;1.38;;
56794;SDS011;42678;59.400;18.410;2022-09-12T15:13:19;7.60;;;1.77;;
56794;SDS011;42678;59.400;18.410;2022-09-12T15:15:56;3.17;;;1.42;;
56794;SDS011;42678;59.400;18.410;2022-09-12T15:18:24;3.80;;;1.48;;
56794;SDS011;42678;59.400;18.410;2022-09-12T15:20:55;3.50;;;1.92;;
56794;SDS011;42678;59.400;18.410;2022-09-12T15:26:16;3.67;;;1.85;;
56794;SDS011;42678;59.400;18.410;2022-09-12T15:28:44;3.80;;;1.80;;
56794;SDS011;42678;59.400;18.410;2022-09-12T15:31:29;3.95;;;1.70;;
56794;SDS011;42678;59.400;18.410;2022-09-12T15:33:57;3.58;;;1.55;;
56794;SDS011;42678;59.400;18.410;2022-09-12T15:36:24;3.53;;;1.88;;
56794;SDS011;42678;59.400;18.410;2022-09-12T15:38:51;5.78;;;1.75;;
56794;SDS011;42678;59.400;18.410;2022-09-12T15:41:18;6.65;;;2.28;;
56794;SDS011;42678;59.400;18.410;2022-09-12T15:44:05;2.88;;;1.50;;
56794;SDS011;42678;59.400;18.410;2022-09-12T15:46:32;5.95;;;2.15;;
56794;SDS011;42678;59.400;18.410;2022-09-12T15:48:58;4.43;;;1.65;;
56794;SDS011;42678;59.400;18.410;2022-09-12T15:51:23;4.45;;;1.67;;
56794;SDS011;42678;59.400;18.410;2022-09-12T15:53:49;6.35;;;2.65;;
56794;SDS011;42678;59.400;18.410;2022-09-12T15:56:16;6.20;;;2.08;;
56794;SDS011;42678;59.400;18.410;2022-09-12T15:58:43;6.47;;;2.22;;
56794;SDS011;42678;59.400;18.410;2022-09-12T16:01:10;3.65;;;1.88;;
56794;SDS011;42678;59.400;18.410;2022-09-12T16:03:39;2.67;;;1.60;;
56794;SDS011;42678;59.400;18.410;2022-09-12T16:06:06;4.47;;;1.50;;
56794;SDS011;42678;59.400;18.410;2022-09-12T16:08:33;4.15;;;1.60;;
56794;SDS011;42678;59.400;18.410;2022-09-12T16:11:04;3.83;;;1.38;;
56794;SDS011;42678;59.400;18.410;2022-09-12T16:13:34;2.58;;;1.73;;
56794;SDS011;42678;59.400;18.410;2022-09-12T16:16:00;6.50;;;1.77;;
56794;SDS011;42678;59.400;18.410;2022-09-12T16:18:27;4.93;;;1.67;;
56794;SDS011;42678;59.400;18.410;2022-09-12T16:20:54;5.40;;;1.98;;
56794;SDS011;42678;59.400;18.410;2022-09-12T16:23:20;4.30;;;1.55;;
56794;SDS011;42678;59.400;18.410;2022-09-12T16:25:59;7.38;;;2.50;;
56794;SDS011;42678;59.400;18.410;2022-09-12T16:28:29;5.07;;;1.95;;
56794;SDS011;42678;59.400;18.410;2022-09-12T16:30:58;4.55;;;2.08;;
56794;SDS011;42678;59.400;18.410;2022-09-12T16:33:25;4.30;;;1.95;;
56794;SDS011;42678;59.400;18.410;2022-09-12T16:35:51;2.78;;;1.48;;
56794;SDS011;42678;59.400;18.410;2022-09-12T16:38:20;5.68;;;1.48;;
56794;SDS011;42678;59.400;18.410;2022-09-12T16:40:46;1.98;;;1.35;;
56794;SDS011;42678;59.400;18.410;2022-09-12T16:43:12;3.88;;;1.35;;
56794;SDS011;42678;59.400;18.410;2022-09-12T16:45:41;4.85;;;2.05;;
56794;SDS011;42678;59.400;18.410;2022-09-12T16:48:08;3.03;;;1.77;;
56794;SDS011;42678;59.400;18.410;2022-09-12T16:50:33;4.60;;;1.42;;
56794;SDS011;42678;59.400;18.410;2022-09-12T16:52:59;2.47;;;1.60;;
56794;SDS011;42678;59.400;18.410;2022-09-12T16:55:25;3.60;;;1.60;;
56794;SDS011;42678;59.400;18.410;2022-09-12T16:57:53;3.08;;;1.42;;
56794;SDS011;42678;59.400;18.410;2022-09-12T17:00:19;6.78;;;2.00;;
56794;SDS011;42678;59.400;18.410;2022-09-12T17:02:45;7.95;;;2.10;;
56794;SDS011;42678;59.400;18.410;2022-09-12T17:05:12;7.47;;;1.92;;
56794;SDS011;42678;59.400;18.410;2022-09-12T17:07:40;4.03;;;1.50;;
56794;SDS011;42678;59.400;18.410;2022-09-12T17:10:06;4.35;;;1.75;;
56794;SDS011;42678;59.400;18.410;2022-09-12T17:12:32;2.25;;;1.65;;
56794;SDS011;42678;59.400;18.410;2022-09-12T17:14:58;4.85;;;2.20;;
56794;SDS011;42678;59.400;18.410;2022-09-12T17:17:24;3.88;;;1.73;;
56794;SDS011;42678;59.400;18.410;2022-09-12T17:19:50;4.28;;;1.60;;
56794;SDS011;42678;59.400;18.410;2022-09-12T17:22:17;4.80;;;2.25;;
56794;SDS011;42678;59.400;18.410;2022-09-12T17:24:43;7.43;;;1.98;;
56794;SDS011;42678;59.400;18.410;2022-09-12T17:27:08;5.22;;;2.03;;
56794;SDS011;42678;59.400;18.410;2022-09-12T17:29:34;3.70;;;1.58;;